createdAt,value
2022-12-15T00:02:35.968Z,100046.97
2022-12-15T00:05:22.512Z,100043.44
2022-12-15T00:08:08.356Z,100043.19
2022-12-15T00:10:54.590Z,100037.19
2022-12-15T00:13:40.569Z,100024.44
2022-12-15T00:16:26.564Z,100027.19
2022-12-15T00:19:13.056Z,100035.28
2022-12-15T00:21:58.895Z,100032.84
2022-12-15T00:24:44.706Z,100039.91
2022-12-15T00:27:35.398Z,100044.00
2022-12-15T00:30:22.817Z,100047.22
2022-12-15T00:33:08.768Z,100044.53
2022-12-15T00:35:54.882Z,100042.09
2022-12-15T00:38:41.555Z,100036.38
2022-12-15T00:41:09.683Z,100034.50
2022-12-15T00:43:38.064Z,100042.88
2022-12-15T00:46:25.686Z,100031.50
2022-12-15T00:48:53.122Z,100041.25
2022-12-15T00:51:20.884Z,100052.09
2022-12-15T00:54:06.990Z,100054.53
2022-12-15T00:56:52.865Z,100062.66
2022-12-15T00:59:38.621Z,100058.31
2022-12-15T01:02:24.756Z,100051.00
2022-12-15T01:05:10.872Z,100034.44
2022-12-15T01:07:56.799Z,100035.25
2022-12-15T01:10:42.373Z,100042.28
2022-12-15T01:13:32.069Z,100046.69
2022-12-15T01:16:18.218Z,100048.81
2022-12-15T01:19:04.166Z,100054.00
2022-12-15T01:21:32.231Z,100068.38
2022-12-15T01:23:59.473Z,100066.72
2022-12-15T01:26:26.744Z,100067.56
2022-12-15T01:28:53.989Z,100062.44
2022-12-15T01:31:21.312Z,100063.50
2022-12-15T01:33:48.583Z,100067.78
2022-12-15T01:36:16.025Z,100070.22
2022-12-15T01:38:43.291Z,100076.06
2022-12-15T01:41:12.459Z,100069.38
2022-12-15T01:43:41.123Z,100075.59
2022-12-15T01:46:11.096Z,100068.84
2022-12-15T01:48:46.838Z,100079.16
2022-12-15T01:51:33.239Z,100073.72
2022-12-15T01:54:10.148Z,100066.72
2022-12-15T01:56:40.550Z,100078.91
2022-12-15T01:59:09.563Z,100082.22
2022-12-15T02:01:37.152Z,100083.81
2022-12-15T02:04:04.613Z,100071.63
2022-12-15T02:06:31.888Z,100071.06
2022-12-15T02:08:59.708Z,100068.88
2022-12-15T02:11:51.850Z,100063.44
2022-12-15T02:14:26.192Z,100064.53
2022-12-15T02:17:06.550Z,100067.25
2022-12-15T02:19:55.243Z,100075.81
2022-12-15T02:22:25.839Z,100072.88
2022-12-15T02:25:05.994Z,100074.00
2022-12-15T02:28:10.235Z,100073.44
2022-12-15T02:31:31.337Z,100077.88
2022-12-15T02:34:06.383Z,100080.03
2022-12-15T02:36:39.653Z,100076.25
2022-12-15T02:39:07.110Z,100077.03
2022-12-15T02:41:45.908Z,100073.16
2022-12-15T02:44:19.516Z,100067.41
2022-12-15T02:47:02.005Z,100083.06
2022-12-15T02:49:51.356Z,100085.44
2022-12-15T02:52:36.950Z,100093.03
2022-12-15T02:55:19.293Z,100106.19
2022-12-15T02:57:59.421Z,100106.91
2022-12-15T03:00:28.291Z,100088.94
2022-12-15T03:02:56.076Z,100089.88
2022-12-15T03:05:24.663Z,100089.53
2022-12-15T03:07:53.462Z,100088.47
2022-12-15T03:10:23.806Z,100078.41
2022-12-15T03:12:51.708Z,100072.75
2022-12-15T03:15:19.447Z,100070.69
2022-12-15T03:17:47.616Z,100076.03
2022-12-15T03:20:15.112Z,100085.69
2022-12-15T03:22:42.592Z,100087.00
2022-12-15T03:25:10.279Z,100074.66
2022-12-15T03:27:37.866Z,100074.22
2022-12-15T03:30:05.932Z,100075.25
2022-12-15T03:32:33.171Z,100077.34
2022-12-15T03:35:01.104Z,100075.97
2022-12-15T03:37:28.665Z,100087.88
2022-12-15T03:39:56.132Z,100081.72
2022-12-15T03:42:42.443Z,100070.09
2022-12-15T03:45:09.760Z,100069.81
2022-12-15T03:47:41.854Z,100061.53
2022-12-15T03:50:10.075Z,100067.59
2022-12-15T03:52:37.390Z,100070.03
2022-12-15T03:55:05.240Z,100073.78
2022-12-15T03:57:32.476Z,100070.09
2022-12-15T03:59:59.870Z,100086.41
2022-12-15T04:02:27.541Z,100083.13
2022-12-15T04:04:55.063Z,100085.44
2022-12-15T04:07:22.355Z,100088.47
2022-12-15T04:09:49.702Z,100092.75
2022-12-15T04:12:16.991Z,100084.03
2022-12-15T04:14:44.217Z,100102.09
2022-12-15T04:17:12.433Z,100097.47
2022-12-15T04:20:00.099Z,100083.78
2022-12-15T04:22:27.394Z,100085.34
2022-12-15T04:25:13.496Z,100083.88
2022-12-15T04:28:01.659Z,100079.75
2022-12-15T04:30:49.449Z,100073.44
2022-12-15T04:33:35.694Z,100075.41
2022-12-15T04:36:22.713Z,100072.28
2022-12-15T04:39:09.194Z,100062.88
2022-12-15T04:41:55.231Z,100070.81
2022-12-15T04:44:41.674Z,100080.50
2022-12-15T04:47:27.599Z,100088.94
2022-12-15T04:50:14.033Z,100081.97
2022-12-15T04:52:59.883Z,100075.53
2022-12-15T04:55:45.794Z,100083.41
2022-12-15T04:58:31.438Z,100077.69
2022-12-15T05:01:17.603Z,100073.59
2022-12-15T05:04:03.881Z,100072.16
2022-12-15T05:06:49.786Z,100077.41
2022-12-15T05:09:35.661Z,100076.78
2022-12-15T05:12:21.963Z,100088.84
2022-12-15T05:15:07.610Z,100078.97
2022-12-15T05:17:53.152Z,100066.56
2022-12-15T05:20:39.004Z,100079.41
2022-12-15T05:23:24.938Z,100094.34
2022-12-15T05:26:10.619Z,100081.50
2022-12-15T05:28:56.693Z,100084.72
2022-12-15T05:31:42.587Z,100075.69
2022-12-15T05:34:09.962Z,100064.22
2022-12-15T05:36:37.308Z,100061.19
2022-12-15T05:39:04.966Z,100076.34
2022-12-15T05:41:32.145Z,100076.16
2022-12-15T05:43:59.588Z,100070.25
2022-12-15T05:46:26.853Z,100071.16
2022-12-15T05:48:54.162Z,100085.81
2022-12-15T05:51:21.640Z,100081.84
2022-12-15T05:53:49.408Z,100081.56
2022-12-15T05:56:16.748Z,100076.59
2022-12-15T05:58:45.599Z,100086.97
2022-12-15T06:01:15.405Z,100093.38
2022-12-15T06:03:42.985Z,100094.91
2022-12-15T06:06:11.573Z,100088.66
2022-12-15T06:08:41.151Z,100099.53
2022-12-15T06:11:10.822Z,100100.13
2022-12-15T06:13:38.350Z,100084.56
2022-12-15T06:16:26.060Z,100081.63
2022-12-15T06:18:55.457Z,100082.72
2022-12-15T06:21:29.070Z,100081.88
2022-12-15T06:23:57.351Z,100085.19
2022-12-15T06:26:27.618Z,100094.56
2022-12-15T06:28:59.177Z,100100.00
2022-12-15T06:31:26.877Z,100094.00
2022-12-15T06:34:01.283Z,100103.00
2022-12-15T06:36:30.817Z,100097.84
2022-12-15T06:39:00.629Z,100096.47
2022-12-15T06:41:30.298Z,100095.84
2022-12-15T06:43:58.168Z,100102.16
2022-12-15T06:46:26.294Z,100102.16
2022-12-15T06:48:53.827Z,100105.50
2022-12-15T06:51:21.314Z,100109.56
2022-12-15T06:53:48.921Z,100109.06
2022-12-15T06:56:30.672Z,100111.09
2022-12-15T06:59:01.817Z,100118.13
2022-12-15T07:01:30.097Z,100111.97
2022-12-15T07:04:00.046Z,100116.59
2022-12-15T07:06:28.481Z,100113.78
2022-12-15T07:08:56.852Z,100104.59
2022-12-15T07:11:24.406Z,100117.09
2022-12-15T07:13:53.261Z,100114.41
2022-12-15T07:16:24.064Z,100125.56
2022-12-15T07:18:51.491Z,100122.59
2022-12-15T07:21:18.750Z,100126.75
2022-12-15T07:23:54.884Z,100134.78
2022-12-15T07:26:23.674Z,100141.38
2022-12-15T07:28:51.334Z,100141.47
2022-12-15T07:31:18.621Z,100149.38
2022-12-15T07:33:48.489Z,100151.19
2022-12-15T07:36:16.061Z,100157.75
2022-12-15T07:38:49.966Z,100160.31
2022-12-15T07:41:19.290Z,100169.72
2022-12-15T07:43:47.872Z,100169.25
2022-12-15T07:46:16.071Z,100171.44
2022-12-15T07:48:43.496Z,100158.41
2022-12-15T07:51:15.553Z,100155.13
2022-12-15T07:53:47.577Z,100168.53
2022-12-15T07:56:15.383Z,100158.16
2022-12-15T07:58:42.866Z,100161.88
2022-12-15T08:01:12.479Z,100165.88
2022-12-15T08:03:40.437Z,100171.09
2022-12-15T08:06:12.648Z,100170.44
2022-12-15T08:08:40.659Z,100181.22
2022-12-15T08:11:11.441Z,100190.31
2022-12-15T08:16:27.518Z,100207.22
2022-12-15T08:18:57.053Z,100204.22
2022-12-15T08:21:24.587Z,100198.47
2022-12-15T08:23:51.846Z,100202.25
2022-12-15T08:26:22.657Z,100210.63
2022-12-15T08:28:54.337Z,100212.38
2022-12-15T08:31:23.130Z,100208.41
2022-12-15T08:33:50.949Z,100217.78
2022-12-15T08:36:19.514Z,100217.75
2022-12-15T08:38:47.408Z,100212.13
2022-12-15T08:41:16.054Z,100205.19
2022-12-15T08:43:48.606Z,100210.25
2022-12-15T08:46:18.343Z,100207.47
2022-12-15T08:48:46.183Z,100206.97
2022-12-15T08:51:13.700Z,100202.78
2022-12-15T08:53:41.084Z,100201.03
2022-12-15T08:56:15.804Z,100202.28
2022-12-15T08:58:43.820Z,100208.91
2022-12-15T09:01:23.368Z,100202.63
2022-12-15T09:03:53.863Z,100214.59
2022-12-15T09:06:27.213Z,100202.09
2022-12-15T09:08:59.895Z,100198.47
2022-12-15T09:11:29.115Z,100207.47
2022-12-15T09:13:57.156Z,100206.75
2022-12-15T09:16:26.435Z,100205.97
2022-12-15T09:18:55.621Z,100215.34
2022-12-15T09:21:26.105Z,100210.44
2022-12-15T09:23:55.495Z,100219.44
2022-12-15T09:26:23.669Z,100209.63
2022-12-15T09:28:52.036Z,100218.56
2022-12-15T09:31:22.569Z,100224.06
2022-12-15T09:33:51.941Z,100230.09
2022-12-15T09:36:19.571Z,100223.16
2022-12-15T09:38:46.864Z,100230.47
2022-12-15T09:41:14.923Z,100233.53
2022-12-15T09:43:54.678Z,100234.16
2022-12-15T09:47:01.156Z,100240.13
2022-12-15T09:49:37.108Z,100247.53
2022-12-15T09:52:10.979Z,100244.94
2022-12-15T09:54:41.752Z,100246.22
2022-12-15T09:57:28.128Z,100246.84
2022-12-15T10:00:07.907Z,100243.09
2022-12-15T10:02:57.100Z,100246.38
2022-12-15T10:06:07.274Z,100246.97
2022-12-15T10:08:23.406Z,100240.91
2022-12-15T10:11:01.568Z,100241.19
2022-12-15T10:13:35.777Z,100239.66
2022-12-15T10:16:16.984Z,100234.03
2022-12-15T10:19:01.935Z,100231.44
2022-12-15T10:21:50.397Z,100226.28
2022-12-15T10:24:44.435Z,100229.34
2022-12-15T10:27:20.968Z,100215.88
2022-12-15T10:30:11.649Z,100216.00
2022-12-15T10:33:14.594Z,100222.47
2022-12-15T10:35:43.981Z,100223.03
2022-12-15T10:41:25.913Z,100210.53
2022-12-15T10:43:54.667Z,100198.03
2022-12-15T10:46:24.554Z,100186.03
2022-12-15T10:48:54.557Z,100173.44
2022-12-15T10:51:24.899Z,100173.75
2022-12-15T10:54:05.657Z,100172.69
2022-12-15T10:56:34.292Z,100177.28
2022-12-15T10:59:21.467Z,100162.03
2022-12-15T11:01:49.135Z,100151.72
2022-12-15T11:04:32.220Z,100162.84
2022-12-15T11:07:02.187Z,100157.63
2022-12-15T11:09:37.502Z,100150.34
2022-12-15T11:12:36.072Z,100138.44
2022-12-15T11:15:23.541Z,100127.88
2022-12-15T11:18:01.015Z,100131.91
2022-12-15T11:20:33.878Z,100140.28
2022-12-15T11:23:38.343Z,100143.31
2022-12-15T11:26:18.563Z,100126.97
2022-12-15T11:28:56.156Z,100118.88
2022-12-15T11:31:41.082Z,100109.69
2022-12-15T11:34:14.010Z,100117.28
2022-12-15T11:36:53.375Z,100117.50
2022-12-15T11:39:26.853Z,100106.88
2022-12-15T11:42:03.728Z,100098.50
2022-12-15T11:44:42.225Z,100100.16
2022-12-15T11:47:33.898Z,100096.06
2022-12-15T11:50:24.394Z,100092.03
2022-12-15T11:53:07.173Z,100094.19
2022-12-15T11:55:49.924Z,100089.81
2022-12-15T11:58:36.632Z,100080.34
2022-12-15T12:01:03.982Z,100074.63
2022-12-15T12:04:02.235Z,100068.72
2022-12-15T12:06:35.509Z,100065.16
2022-12-15T12:09:13.870Z,100072.78
2022-12-15T12:11:54.053Z,100074.41
2022-12-15T12:15:09.533Z,100064.34
2022-12-15T12:17:55.515Z,100064.63
2022-12-15T12:20:25.148Z,100053.22
2022-12-15T12:23:02.531Z,100050.22
2022-12-15T12:25:31.688Z,100048.63
2022-12-15T12:28:02.336Z,100046.97
2022-12-15T12:30:35.603Z,100035.00
2022-12-15T12:33:14.235Z,100045.59
2022-12-15T12:35:56.642Z,100032.03
2022-12-15T12:38:31.415Z,100030.66
2022-12-15T12:40:59.680Z,100037.47
2022-12-15T12:43:42.210Z,100036.38
2022-12-15T12:46:24.272Z,100042.63
2022-12-15T12:48:57.432Z,100034.75
2022-12-15T12:51:36.519Z,100025.22
2022-12-15T12:54:30.859Z,100020.97
2022-12-15T12:56:58.732Z,100024.38
2022-12-15T12:59:29.144Z,100017.00
2022-12-15T13:01:57.792Z,100022.41
2022-12-15T13:04:28.215Z,100015.63
2022-12-15T13:06:55.522Z,100020.50
2022-12-15T13:09:25.154Z,100016.75
2022-12-15T13:11:58.567Z,100012.91
2022-12-15T13:14:44.771Z,100023.84
2022-12-15T13:17:39.240Z,100015.63
2022-12-15T13:20:17.913Z,100019.53
2022-12-15T13:22:45.371Z,100027.13
2022-12-15T13:25:36.975Z,100013.50
2022-12-15T13:28:39.753Z,100011.03
2022-12-15T13:31:16.530Z,100012.88
2022-12-15T13:33:50.223Z,100017.56
2022-12-15T13:36:39.386Z,100022.22
2022-12-15T13:39:12.558Z,100012.47
2022-12-15T13:42:31.540Z,100002.88
2022-12-15T13:44:48.771Z,100006.91
2022-12-15T13:47:23.373Z,100012.84
2022-12-15T13:50:02.362Z,100000.63
2022-12-15T13:53:08.587Z,99981.03
2022-12-15T13:55:28.199Z,99980.22
2022-12-15T13:58:17.447Z,100003.16
2022-12-15T14:00:53.451Z,99995.28
2022-12-15T14:03:21.355Z,99996.38
2022-12-15T14:05:57.153Z,99998.81
2022-12-15T14:08:28.845Z,99988.72
2022-12-15T14:10:58.540Z,99991.09
2022-12-15T14:13:29.887Z,99988.16
2022-12-15T14:16:04.969Z,99984.38
2022-12-15T14:18:34.533Z,99981.63
2022-12-15T14:21:05.661Z,99970.50
2022-12-15T14:24:11.042Z,99975.38
2022-12-15T14:26:32.101Z,99986.19
2022-12-15T14:29:05.017Z,99991.34
2022-12-15T14:31:32.386Z,99985.16
2022-12-15T14:34:07.551Z,100011.03
2022-12-15T14:36:35.574Z,100015.31
2022-12-15T14:39:11.946Z,100008.84
2022-12-15T14:41:44.599Z,100025.16
2022-12-15T14:44:32.256Z,100021.13
2022-12-15T14:47:08.589Z,100018.09
2022-12-15T14:49:41.499Z,100012.88
2022-12-15T14:52:34.167Z,100010.16
2022-12-15T14:55:22.689Z,100012.34
2022-12-15T14:57:52.356Z,100024.03
2022-12-15T15:00:35.763Z,100027.50
2022-12-15T15:06:11.078Z,100031.81
2022-12-15T15:08:50.022Z,100035.09
2022-12-15T15:11:33.784Z,100038.09
2022-12-15T15:14:06.088Z,100040.00
2022-12-15T15:16:34.190Z,100033.09
2022-12-15T15:19:02.920Z,100029.56
2022-12-15T15:21:33.438Z,100039.41
2022-12-15T15:24:04.807Z,100045.09
2022-12-15T15:26:32.198Z,100074.50
2022-12-15T15:28:59.628Z,100061.25
2022-12-15T15:31:41.582Z,100073.72
2022-12-15T15:34:09.245Z,100063.97
2022-12-15T15:36:38.565Z,100067.47
2022-12-15T15:39:24.077Z,100078.06
2022-12-15T15:41:51.255Z,100076.72
2022-12-15T15:44:18.639Z,100083.78
2022-12-15T15:46:51.068Z,100090.03
2022-12-15T15:49:20.853Z,100080.28
2022-12-15T15:51:48.252Z,100090.81
2022-12-15T15:54:18.082Z,100104.13
2022-12-15T15:56:45.397Z,100100.38
2022-12-15T15:59:14.585Z,100103.66
2022-12-15T16:01:42.842Z,100106.59
2022-12-15T16:04:10.371Z,100110.13
2022-12-15T16:06:42.080Z,100100.59
2022-12-15T16:09:14.724Z,100113.41
2022-12-15T16:11:41.959Z,100109.00
2022-12-15T16:14:12.942Z,100117.69
2022-12-15T16:16:42.117Z,100114.72
2022-12-15T16:19:12.099Z,100116.06
2022-12-15T16:21:40.250Z,100131.84
2022-12-15T16:24:10.918Z,100132.66
2022-12-15T16:26:38.964Z,100130.00
2022-12-15T16:29:16.766Z,100137.31
2022-12-15T16:31:45.817Z,100149.00
2022-12-15T16:34:16.489Z,100144.91
2022-12-15T16:36:44.059Z,100154.16
2022-12-15T16:39:37.921Z,100161.19
2022-12-15T16:42:06.188Z,100161.22
2022-12-15T16:44:33.426Z,100165.50
2022-12-15T16:47:00.782Z,100168.59
2022-12-15T16:49:33.836Z,100169.94
2022-12-15T16:52:05.666Z,100168.03
2022-12-15T16:54:32.967Z,100171.56
2022-12-15T16:57:00.295Z,100174.25
2022-12-15T16:59:35.886Z,100159.66
2022-12-15T17:02:27.448Z,100158.31
2022-12-15T17:04:55.645Z,100156.94
2022-12-15T17:07:24.670Z,100148.78
2022-12-15T17:09:52.022Z,100157.44
2022-12-15T17:12:19.779Z,100161.00
2022-12-15T17:14:47.158Z,100161.50
2022-12-15T17:17:16.330Z,100171.81
2022-12-15T17:19:58.034Z,100162.06
2022-12-15T17:22:26.393Z,100159.91
2022-12-15T17:24:53.744Z,100158.56
2022-12-15T17:27:28.646Z,100166.97
2022-12-15T17:29:56.946Z,100179.78
2022-12-15T17:32:24.294Z,100174.88
2022-12-15T17:34:51.973Z,100179.22
2022-12-15T17:37:19.224Z,100184.09
2022-12-15T17:39:50.953Z,100196.59
2022-12-15T17:42:20.768Z,100200.69
2022-12-15T17:44:48.768Z,100193.84
2022-12-15T17:47:16.767Z,100198.25
2022-12-15T17:49:44.324Z,100192.53
2022-12-15T17:52:31.452Z,100195.78
2022-12-15T17:55:00.453Z,100200.94
2022-12-15T17:57:31.453Z,100195.53
2022-12-15T17:59:59.608Z,100197.72
2022-12-15T18:02:27.198Z,100197.44
2022-12-15T18:04:55.305Z,100214.00
2022-12-15T18:07:23.755Z,100212.63
2022-12-15T18:09:52.185Z,100215.34
2022-12-15T18:12:26.912Z,100214.81
2022-12-15T18:14:55.428Z,100216.72
2022-12-15T18:17:23.866Z,100216.72
2022-12-15T18:19:51.363Z,100223.00
2022-12-15T18:22:22.452Z,100215.63
2022-12-15T18:24:51.414Z,100227.59
2022-12-15T18:27:25.797Z,100234.66
2022-12-15T18:29:53.443Z,100226.50
2022-12-15T18:32:23.698Z,100232.44
2022-12-15T18:34:52.351Z,100238.13
2022-12-15T18:37:21.389Z,100228.13
2022-12-15T18:39:49.982Z,100236.81
2022-12-15T18:42:21.500Z,100237.63
2022-12-15T18:44:51.459Z,100236.81
2022-12-15T18:47:19.545Z,100251.16
2022-12-15T18:49:46.902Z,100246.56
2022-12-15T18:52:18.694Z,100243.31
2022-12-15T18:54:50.170Z,100241.69
2022-12-15T18:57:36.484Z,100250.66
2022-12-15T19:00:13.072Z,100248.22
2022-12-15T19:02:41.539Z,100255.53
2022-12-15T19:05:27.758Z,100254.66
2022-12-15T19:08:10.164Z,100253.84
2022-12-15T19:10:56.052Z,100272.09
2022-12-15T19:13:26.036Z,100272.09
2022-12-15T19:15:53.491Z,100271.84
2022-12-15T19:18:42.238Z,100269.13
2022-12-15T19:21:42.433Z,100276.44
2022-12-15T19:24:49.490Z,100268.81
2022-12-15T19:27:23.255Z,100283.19
2022-12-15T19:29:50.805Z,100278.88
2022-12-15T19:32:18.108Z,100284.28
2022-12-15T19:34:45.667Z,100287.00
2022-12-15T19:37:28.613Z,100282.69
2022-12-15T19:39:57.682Z,100289.19
2022-12-15T19:42:30.336Z,100290.59
2022-12-15T19:44:57.646Z,100282.44
2022-12-15T19:47:25.579Z,100298.19
2022-12-15T19:49:53.102Z,100298.44
2022-12-15T19:52:22.524Z,100300.03
2022-12-15T19:54:50.169Z,100297.34
2022-12-15T19:57:18.900Z,100295.19
2022-12-15T19:59:46.169Z,100296.47
2022-12-15T20:02:17.815Z,100299.50
2022-12-15T20:04:45.796Z,100287.28
2022-12-15T20:07:27.110Z,100285.09
2022-12-15T20:09:56.181Z,100293.00
2022-12-15T20:12:23.806Z,100295.97
2022-12-15T20:14:52.021Z,100305.34
2022-12-15T20:17:19.490Z,100301.09
2022-12-15T20:19:46.801Z,100304.88
2022-12-15T20:22:15.047Z,100306.19
2022-12-15T20:24:42.810Z,100306.28
2022-12-15T20:27:14.729Z,100309.00
2022-12-15T20:29:42.172Z,100310.34
2022-12-15T20:32:19.417Z,100313.34
2022-12-15T20:34:47.332Z,100303.31
2022-12-15T20:37:18.953Z,100310.44
2022-12-15T20:39:46.215Z,100311.19
2022-12-15T20:42:19.294Z,100309.28
2022-12-15T20:44:46.610Z,100316.41
2022-12-15T20:47:22.982Z,100321.56
2022-12-15T20:50:01.925Z,100315.84
2022-12-15T20:52:29.450Z,100321.00
2022-12-15T20:54:56.747Z,100322.91
2022-12-15T20:57:24.124Z,100326.16
2022-12-15T20:59:52.582Z,100324.59
2022-12-15T21:02:23.972Z,100327.75
2022-12-15T21:04:51.470Z,100329.13
2022-12-15T21:07:18.852Z,100337.03
2022-12-15T21:09:46.169Z,100328.59
2022-12-15T21:12:21.813Z,100326.59
2022-12-15T21:14:49.089Z,100329.44
2022-12-15T21:17:25.702Z,100337.03
2022-12-15T21:19:53.085Z,100332.63
2022-12-15T21:22:24.267Z,100336.47
2022-12-15T21:24:53.686Z,100335.16
2022-12-15T21:27:22.142Z,100332.59
2022-12-15T21:29:52.700Z,100338.63
2022-12-15T21:32:21.056Z,100334.56
2022-12-15T21:34:49.861Z,100331.88
2022-12-15T21:37:22.769Z,100330.00
2022-12-15T21:39:50.156Z,100327.22
2022-12-15T21:42:18.763Z,100335.13
2022-12-15T21:44:46.151Z,100340.31
2022-12-15T21:47:47.545Z,100339.78
2022-12-15T21:50:18.891Z,100347.06
2022-12-15T21:52:46.608Z,100351.16
2022-12-15T21:55:18.548Z,100353.88
2022-12-15T21:57:45.772Z,100360.75
2022-12-15T22:00:15.500Z,100357.38
2022-12-15T22:02:43.573Z,100357.44
2022-12-15T22:05:18.379Z,100358.72
2022-12-15T22:07:45.837Z,100357.44
2022-12-15T22:10:13.610Z,100359.34
2022-12-15T22:12:43.851Z,100372.91
2022-12-15T22:15:19.685Z,100370.72
2022-12-15T22:17:48.646Z,100370.31
2022-12-15T22:20:20.239Z,100373.91
2022-12-15T22:22:47.897Z,100378.78
2022-12-15T22:25:28.669Z,100373.38
2022-12-15T22:27:56.410Z,100379.19
2022-12-15T22:30:25.676Z,100385.09
2022-12-15T22:32:53.886Z,100390.22
2022-12-15T22:35:24.610Z,100383.41
2022-12-15T22:37:56.333Z,100389.13
2022-12-15T22:40:24.249Z,100389.44
2022-12-15T22:42:55.103Z,100391.00
2022-12-15T22:45:24.159Z,100385.91
2022-12-15T22:47:52.444Z,100380.50
2022-12-15T22:50:22.202Z,100383.63
2022-12-15T22:52:50.426Z,100392.19
2022-12-15T22:55:19.780Z,100392.91
2022-12-15T22:57:50.513Z,100398.03
2022-12-15T23:00:18.086Z,100394.31
2022-12-15T23:02:46.602Z,100394.53
2022-12-15T23:05:17.158Z,100394.31
2022-12-15T23:07:44.904Z,100398.34
2022-12-15T23:10:34.129Z,100400.41
2022-12-15T23:13:01.418Z,100399.59
2022-12-15T23:15:47.480Z,100396.38
2022-12-15T23:18:15.186Z,100399.16
2022-12-15T23:20:42.869Z,100407.00
2022-12-15T23:23:10.134Z,100401.03
2022-12-15T23:25:37.408Z,100402.75
2022-12-15T23:28:05.484Z,100401.41
2022-12-15T23:30:32.688Z,100403.09
2022-12-15T23:33:00.016Z,100400.44
2022-12-15T23:35:27.279Z,100394.41
2022-12-15T23:37:54.541Z,100393.91
2022-12-15T23:40:22.772Z,100404.56
2022-12-15T23:42:50.681Z,100407.22
2022-12-15T23:45:18.467Z,100410.50
2022-12-15T23:47:45.778Z,100416.81
2022-12-15T23:50:13.154Z,100427.91
2022-12-15T23:52:40.737Z,100414.16
2022-12-15T23:55:10.208Z,100418.03
2022-12-15T23:57:38.393Z,100416.75
